Ana Sayfa
METAR-TAF:

METAR-TAF

Havaalanları :

Chihuahua, Meksika

Enlem: 28-42N, Boylam: 105-58W, yükseklik: 1360 m

Güncel hava durumu gözlemi

Rapor saat 03:40 UTC de 6 saat ve 18 dakika önce yapıldı.
Rüzgar doğu/güneydoğudan 5 kt
Sıcaklık 28°C
Nem 19%
Basınç 1015 hPa
Görüş mesafesi: 16.1 km
3000 ft yükseklikte parçalı bulutlu

METAR: MMCU 180340Z 11005KT 10SM SCT030 28/02 A2996 RMK 8/100

Saat: 03:58 (09:58 UTC)

Tahmin

Rapor saat 04:10 UTC de 5 saat ve 48 dakika önce yapıldı.
Ayın 18'si saat 06 UTC'den ayın 19'si saat 06 UTC'ye kadar geçerli Tahmin
Rüzgar doğudan 5 kt
Görüş mesafesi: 10 km
3000 ft yükseklikte parçalı bulutlu
Ayın 18'si saat 1700 UTC'den
Rüzgar güneybatıdan 10 kt
Görüş mesafesi: 10 km
3000 ft yükseklikte parçalı bulutlu
Ayın 19'si saat 0200 UTC'den
Rüzgar güneybatıdan 5 kt
Görüş mesafesi: 10 km
2000 ft yükseklikte parçalı bulutlu

TAF: MMCU 180410Z 1806/1906 08005KT P6SM SCT030 FM181700 22010KT P6SM SCT030 FM190200 23005KT P6SM SCT020

4.000'den fazla havaalanı için hava durumu gözlemleri ve tahminleri (METAR ve TAF raporları).

Kullanılabilir istasyonlar harita üzerinde sarı ve kırmızı noktalarla gösterilir.

İstasyonun adını görmek için fareyi noktanın üzerinde gezdirin.

Sonrasında hava gözlem ve tahminlerini görmek için tıklayın.

Haritayı değiştirmek için: yaklaştırmak için siyah artı işaretli yeşil düğmeye ve uzaklaştırmak için de eksi işaretli düğmeye hızla tıklayın; bitişik haritalar için yeşil okları kullanın.


METAR-TAF: